Time;durP1;ratioP1;P1;durP2;ratioP2;P2;SDS_P1;SDS_P2;PMS_P1;PMS_P2;Temp;Humidity;BMP_temperature;BMP_pressure;BME280_temperature;BME280_humidity;BME280_pressure;Samples;Min_cycle;Max_cycle;Signal;HPM_P1;HPM_P2
2022/04/09 00:01:29;;;;;;;2.47;0.40;;;3.50;99.90;;;;;;5102497;28;20205;-88
2022/04/09 00:04:05;;;;;;;2.00;0.40;;;3.40;99.90;;;;;;5095927;28;20679;-88
2022/04/09 00:06:33;;;;;;;3.33;0.98;;;3.50;99.90;;;;;;5100947;28;20248;-89
2022/04/09 00:09:10;;;;;;;2.20;0.57;;;3.60;99.90;;;;;;5111838;28;20563;-89
2022/04/09 00:11:53;;;;;;;2.38;0.50;;;3.80;99.90;;;;;;5105910;28;20198;-88
2022/04/09 00:14:29;;;;;;;2.20;0.60;;;3.80;99.90;;;;;;5115407;28;20220;-88
2022/04/09 00:16:57;;;;;;;2.70;0.70;;;3.80;99.90;;;;;;5116319;28;20228;-88
2022/04/09 00:19:28;;;;;;;2.60;0.80;;;3.80;99.90;;;;;;5112355;28;20232;-89
2022/04/09 00:22:33;;;;;;;2.10;0.50;;;3.80;99.90;;;;;;5107603;28;20209;-89
2022/04/09 00:25:12;;;;;;;2.50;0.80;;;3.90;99.90;;;;;;5105716;28;20208;-88
2022/04/09 00:27:50;;;;;;;2.13;0.70;;;3.60;99.90;;;;;;5113838;28;20224;-87
2022/04/09 00:33:14;;;;;;;3.17;0.70;;;3.90;99.90;;;;;;5116314;28;20199;-89
2022/04/09 00:38:10;;;;;;;2.33;0.68;;;4.20;99.90;;;;;;5162644;22;20240;-87
2022/04/09 00:40:49;;;;;;;2.60;0.80;;;4.10;99.90;;;;;;5089754;28;20751;-87
2022/04/09 00:43:16;;;;;;;2.22;0.70;;;4.20;99.90;;;;;;5091118;28;20285;-87
2022/04/09 00:45:55;;;;;;;2.30;0.80;;;4.20;99.90;;;;;;5078137;28;20293;-87
2022/04/09 00:48:26;;;;;;;3.03;1.20;;;4.20;99.90;;;;;;5081278;28;20239;-88
2022/04/09 00:50:54;;;;;;;2.40;0.90;;;3.80;99.90;;;;;;5096947;28;20180;-88
2022/04/09 00:53:28;;;;;;;2.92;1.10;;;3.80;99.90;;;;;;5096650;28;20212;-87
2022/04/09 00:56:15;;;;;;;2.40;0.93;;;4.20;99.90;;;;;;5095002;28;20197;-87
2022/04/09 00:58:53;;;;;;;2.10;0.60;;;4.20;99.90;;;;;;5078013;28;20218;-87
2022/04/09 01:01:24;;;;;;;2.30;0.70;;;4.20;99.90;;;;;;5078514;28;20197;-88
2022/04/09 01:03:52;;;;;;;2.75;1.02;;;4.20;99.90;;;;;;5077760;28;20200;-88
2022/04/09 01:06:25;;;;;;;2.40;0.70;;;4.20;99.90;;;;;;5076969;28;20248;-88
2022/04/09 01:09:03;;;;;;;2.25;0.65;;;4.40;99.90;;;;;;5095114;28;20197;-88
2022/04/09 01:11:33;;;;;;;2.20;0.63;;;4.40;99.90;;;;;;5085862;28;20209;-88
2022/04/09 01:14:08;;;;;;;2.33;0.80;;;4.30;99.90;;;;;;5076062;28;20213;-87
2022/04/09 01:16:35;;;;;;;2.50;0.80;;;4.30;99.90;;;;;;5094228;28;20287;-86
2022/04/09 01:19:02;;;;;;;2.47;0.80;;;4.10;99.90;;;;;;5096540;28;20213;-86
2022/04/09 01:21:30;;;;;;;2.88;1.13;;;4.00;99.90;;;;;;5092643;28;20234;-86
2022/04/09 01:24:01;;;;;;;4.25;1.20;;;4.40;99.90;;;;;;5085927;28;20215;-87
2022/04/09 01:26:34;;;;;;;5.70;1.55;;;4.40;99.90;;;;;;5096206;28;20210;-88
2022/04/09 01:29:04;;;;;;;2.90;1.10;;;4.10;99.90;;;;;;5095482;28;20252;-88
2022/04/09 01:31:33;;;;;;;3.25;1.25;;;4.20;99.90;;;;;;5092695;28;20253;-88
2022/04/09 01:34:10;;;;;;;2.78;1.05;;;4.20;99.90;;;;;;5096392;28;20217;-88
2022/04/09 01:36:39;;;;;;;4.00;1.52;;;4.50;99.90;;;;;;5096411;28;20272;-87
2022/04/09 01:39:12;;;;;;;3.55;1.30;;;4.50;99.90;;;;;;5095703;28;20249;-88
2022/04/09 01:41:42;;;;;;;3.30;1.10;;;4.30;99.90;;;;;;5087345;28;20202;-87
2022/04/09 01:44:13;;;;;;;2.85;1.25;;;4.60;99.90;;;;;;5080553;28;20213;-88
2022/04/09 01:46:48;;;;;;;3.33;1.40;;;4.50;99.90;;;;;;5081275;28;20225;-88
2022/04/09 01:49:16;;;;;;;3.58;1.63;;;4.50;99.90;;;;;;5083261;28;20228;-87
2022/04/09 01:51:54;;;;;;;3.20;1.60;;;4.40;99.90;;;;;;5083160;28;20202;-87
2022/04/09 01:54:25;;;;;;;3.10;1.45;;;4.70;99.90;;;;;;5080596;28;20208;-88
2022/04/09 01:56:54;;;;;;;3.33;1.45;;;4.60;99.90;;;;;;5079784;28;20229;-88
2022/04/09 01:59:24;;;;;;;2.92;1.40;;;4.60;99.90;;;;;;5079710;28;20218;-87
2022/04/09 02:01:53;;;;;;;5.38;1.75;;;4.60;99.90;;;;;;5078764;28;20202;-88
2022/04/09 02:04:30;;;;;;;3.67;1.98;;;4.70;99.90;;;;;;5080061;28;20223;-88
2022/04/09 02:06:58;;;;;;;3.70;1.88;;;4.40;99.90;;;;;;5079918;28;20308;-86
2022/04/09 02:09:27;;;;;;;4.07;1.98;;;4.50;99.90;;;;;;5079255;28;20193;-88
2022/04/09 02:11:59;;;;;;;3.60;1.85;;;4.80;99.90;;;;;;5082675;28;20194;-88
2022/04/09 02:14:26;;;;;;;4.05;1.95;;;4.70;99.90;;;;;;5092031;28;20213;-88
2022/04/09 02:16:54;;;;;;;4.63;2.10;;;4.70;99.90;;;;;;5080397;28;20221;-87
2022/04/09 02:19:21;;;;;;;3.40;1.83;;;4.70;99.90;;;;;;5079619;28;20226;-87
2022/04/09 02:21:48;;;;;;;3.85;2.10;;;4.80;99.90;;;;;;5079633;28;20201;-86
2022/04/09 02:24:15;;;;;;;5.00;2.05;;;4.50;99.90;;;;;;5085425;28;20201;-87
2022/04/09 02:26:45;;;;;;;5.60;1.80;;;4.90;99.90;;;;;;5083167;28;20225;-86
2022/04/09 02:29:13;;;;;;;3.78;2.20;;;4.90;99.90;;;;;;5090987;28;20295;-88
2022/04/09 02:31:40;;;;;;;4.40;2.20;;;4.60;99.90;;;;;;5095420;28;20185;-86
2022/04/09 02:34:08;;;;;;;4.05;2.15;;;4.90;99.90;;;;;;5098425;28;20273;-87
2022/04/09 02:36:36;;;;;;;5.05;2.88;;;4.50;99.90;;;;;;5094792;28;20225;-87
2022/04/09 02:39:04;;;;;;;3.60;2.00;;;5.00;99.90;;;;;;5097406;28;20221;-86
2022/04/09 02:41:31;;;;;;;4.07;2.17;;;5.00;99.90;;;;;;5094775;28;20235;-87
2022/04/09 02:44:00;;;;;;;5.55;2.50;;;5.00;99.90;;;;;;5082192;28;20237;-87
2022/04/09 02:46:27;;;;;;;14.68;8.55;;;4.50;99.90;;;;;;5080205;28;20244;-88
2022/04/09 02:48:54;;;;;;;3.90;2.33;;;4.80;99.90;;;;;;5080004;28;20289;-87
2022/04/09 02:51:24;;;;;;;4.47;2.40;;;4.90;99.90;;;;;;5086660;28;20224;-87
2022/04/09 02:53:52;;;;;;;4.75;2.38;;;4.60;99.90;;;;;;5082917;28;20211;-87
2022/04/09 02:56:21;;;;;;;4.03;2.72;;;4.70;99.90;;;;;;5079844;28;20289;-87
2022/04/09 02:58:48;;;;;;;5.03;2.83;;;4.70;99.90;;;;;;5093092;28;20197;-88
2022/04/09 03:01:20;;;;;;;5.30;3.03;;;4.90;99.90;;;;;;5098829;28;20217;-88
2022/04/09 03:03:48;;;;;;;3.90;2.30;;;4.50;99.90;;;;;;5095178;28;20190;-87
2022/04/09 03:06:15;;;;;;;4.30;2.55;;;4.90;99.90;;;;;;5085377;28;20336;-87
2022/04/09 03:08:45;;;;;;;5.50;2.40;;;4.90;99.90;;;;;;5088550;28;20194;-89
2022/04/09 03:11:13;;;;;;;4.75;2.83;;;4.90;99.90;;;;;;5092057;28;20194;-87
2022/04/09 03:13:39;;;;;;;4.93;2.20;;;4.90;99.90;;;;;;5080620;28;20634;-87
2022/04/09 03:16:09;;;;;;;5.65;2.92;;;4.60;99.90;;;;;;5081328;28;20751;-87
2022/04/09 03:18:39;;;;;;;4.20;2.40;;;4.50;99.90;;;;;;5088570;28;20321;-88
2022/04/09 03:21:06;;;;;;;3.85;2.15;;;4.90;99.90;;;;;;5083592;28;20298;-87
2022/04/09 03:23:33;;;;;;;3.90;2.28;;;4.50;99.90;;;;;;5081337;28;20205;-87
2022/04/09 03:26:00;;;;;;;4.88;2.50;;;4.50;99.90;;;;;;5102659;22;20213;-87
2022/04/09 03:28:28;;;;;;;4.40;2.83;;;5.00;99.90;;;;;;5118590;28;20173;-86
2022/04/09 03:30:55;;;;;;;4.20;2.35;;;4.90;99.90;;;;;;5104347;28;20201;-86
2022/04/09 03:33:23;;;;;;;4.15;2.30;;;4.70;99.90;;;;;;5101642;28;20724;-86
2022/04/09 03:35:52;;;;;;;4.72;2.65;;;4.80;99.90;;;;;;5109549;28;20228;-87
2022/04/09 03:38:19;;;;;;;4.40;2.65;;;5.10;99.90;;;;;;5101711;28;20205;-88
2022/04/09 03:41:00;;;;;;;7.55;2.80;;;5.10;99.90;;;;;;5098980;28;20221;-88
2022/04/09 03:43:53;;;;;;;5.45;2.75;;;5.10;99.90;;;;;;5104017;28;20279;-88
2022/04/09 03:46:20;;;;;;;4.47;2.60;;;4.60;99.90;;;;;;5105598;28;20290;-88
2022/04/09 03:49:00;;;;;;;5.30;3.10;;;4.90;99.90;;;;;;5102101;28;20209;-87
2022/04/09 03:51:58;;;;;;;5.47;2.95;;;5.20;99.90;;;;;;5118133;28;20194;-85
2022/04/09 03:54:35;;;;;;;6.00;3.58;;;5.20;99.90;;;;;;5116136;28;20185;-87
2022/04/09 03:57:12;;;;;;;7.60;3.70;;;4.90;99.90;;;;;;5116374;28;20212;-88
2022/04/09 04:02:38;;;;;;;7.88;4.10;;;5.10;99.90;;;;;;5112798;28;20227;-87
2022/04/09 04:08:14;;;;;;;7.45;4.88;;;5.20;99.90;;;;;;5097806;28;20276;-88
2022/04/09 04:10:42;;;;;;;8.35;5.00;;;5.40;99.90;;;;;;5098094;28;20220;-88
2022/04/09 04:13:13;;;;;;;11.73;5.82;;;4.90;99.90;;;;;;5101054;28;20216;-87
2022/04/09 04:15:46;;;;;;;10.77;6.45;;;5.20;99.90;;;;;;5105640;28;20189;-87
2022/04/09 04:18:14;;;;;;;10.13;6.05;;;5.10;99.90;;;;;;5102540;28;20209;-86
2022/04/09 04:20:44;;;;;;;9.60;6.40;;;5.30;99.90;;;;;;5110455;28;20212;-87
2022/04/09 04:23:12;;;;;;;10.00;7.05;;;4.80;99.90;;;;;;5114379;28;20209;-87
2022/04/09 04:25:41;;;;;;;9.88;6.30;;;5.10;99.90;;;;;;5117625;28;20205;-88
2022/04/09 04:28:08;;;;;;;12.15;6.75;;;5.20;99.90;;;;;;5111913;28;20204;-87
2022/04/09 04:30:36;;;;;;;10.18;6.97;;;5.30;99.90;;;;;;5102494;28;20204;-88
2022/04/09 04:33:03;;;;;;;12.63;7.88;;;5.20;99.90;;;;;;5101404;28;20197;-88
2022/04/09 04:35:30;;;;;;;12.27;7.45;;;5.20;99.90;;;;;;5101106;28;20217;-88
2022/04/09 04:38:00;;;;;;;13.73;7.97;;;5.00;99.90;;;;;;5105988;28;20613;-87
2022/04/09 04:40:29;;;;;;;13.80;8.32;;;4.80;99.90;;;;;;5114967;28;20236;-86
2022/04/09 04:42:56;;;;;;;13.02;8.25;;;5.00;99.90;;;;;;5103619;28;20204;-87
2022/04/09 04:45:23;;;;;;;17.75;8.70;;;5.00;99.90;;;;;;5103111;28;20213;-87
2022/04/09 04:47:53;;;;;;;13.43;8.75;;;5.00;99.90;;;;;;5103564;28;20225;-87
2022/04/09 04:50:23;;;;;;;13.60;9.25;;;5.00;99.90;;;;;;5102219;28;20270;-88
2022/04/09 04:52:51;;;;;;;13.10;8.77;;;4.90;99.90;;;;;;5110577;28;20223;-87
2022/04/09 04:55:19;;;;;;;11.55;8.35;;;4.90;99.90;;;;;;5112345;28;20216;-87
2022/04/09 04:57:55;;;;;;;15.77;8.10;;;4.90;99.90;;;;;;5111940;28;20258;-87
2022/04/09 05:00:24;;;;;;;15.00;9.10;;;4.90;99.90;;;;;;5100858;28;20204;-88
2022/04/09 05:02:52;;;;;;;11.35;8.55;;;4.80;99.90;;;;;;5098752;28;20280;-88
2022/04/09 05:05:19;;;;;;;17.75;9.27;;;5.00;99.90;;;;;;5100064;28;20239;-88
2022/04/09 05:07:49;;;;;;;13.90;8.75;;;4.90;99.90;;;;;;5100597;28;20270;-87
2022/04/09 05:10:18;;;;;;;15.68;9.38;;;5.00;99.90;;;;;;5104088;28;20212;-88
2022/04/09 05:12:47;;;;;;;11.55;8.40;;;4.70;99.90;;;;;;5105202;28;20298;-86
2022/04/09 05:15:15;;;;;;;9.43;7.43;;;5.00;99.90;;;;;;5104629;28;20204;-86
2022/04/09 05:17:49;;;;;;;11.95;7.65;;;5.00;99.90;;;;;;5106016;28;20239;-87
2022/04/09 05:20:17;;;;;;;12.15;7.88;;;5.00;99.90;;;;;;5106313;28;20247;-86
2022/04/09 05:22:46;;;;;;;13.55;7.90;;;5.30;99.90;;;;;;5106561;28;20582;-87
2022/04/09 05:25:17;;;;;;;11.30;7.25;;;5.20;99.90;;;;;;5104714;28;20207;-87
2022/04/09 05:27:44;;;;;;;11.35;7.72;;;5.20;99.90;;;;;;5104740;28;20319;-87
2022/04/09 05:30:17;;;;;;;13.55;7.43;;;5.30;99.90;;;;;;5105270;28;20200;-87
2022/04/09 05:32:44;;;;;;;10.90;8.05;;;5.20;99.90;;;;;;5107385;28;20207;-87
2022/04/09 05:35:13;;;;;;;11.85;8.55;;;5.20;99.90;;;;;;5117085;28;20208;-87
2022/04/09 05:37:48;;;;;;;11.48;8.27;;;5.20;99.90;;;;;;5119807;28;20215;-87
2022/04/09 05:40:15;;;;;;;13.80;8.30;;;5.10;99.90;;;;;;5110452;28;20224;-87
2022/04/09 05:42:43;;;;;;;10.13;7.50;;;5.10;99.90;;;;;;5117445;28;20188;-87
2022/04/09 05:45:10;;;;;;;11.77;7.38;;;4.70;99.90;;;;;;5101634;28;20213;-88
2022/04/09 05:51:32;;;;;;;12.10;7.40;;;4.80;99.90;;;;;;5012327;28;20213;-84
2022/04/09 06:01:44;;;;;;;15.82;7.55;;;5.30;99.90;;;;;;4877117;28;20224;-84
2022/04/09 06:05:06;;;;;;;;;;;;;;;;;;;;;
2022/04/09 06:11:10;;;;;;;10.73;6.75;;;5.20;99.90;;;;;;5101574;28;20201;-84
2022/04/09 06:14:04;;;;;;;8.88;6.45;;;5.10;99.90;;;;;;5104406;28;20360;-83
2022/04/09 06:17:07;;;;;;;8.57;6.15;;;5.10;99.90;;;;;;5098704;28;20258;-84
2022/04/09 06:20:06;;;;;;;10.93;6.82;;;5.30;99.90;;;;;;5102293;28;20213;-84
2022/04/09 06:23:14;;;;;;;12.27;6.88;;;5.40;99.90;;;;;;5107449;28;20193;-84
2022/04/09 06:32:36;;;;;;;11.48;6.18;;;5.40;99.90;;;;;;5037627;28;20272;-84
2022/04/09 06:41:53;;;;;;;12.60;5.80;;;5.50;99.90;;;;;;5117500;28;20204;-84
2022/04/09 06:44:37;;;;;;;10.23;6.20;;;5.60;99.90;;;;;;5108527;28;20578;-84
2022/04/09 06:57:51;;;;;;;12.23;5.93;;;5.40;99.90;;;;;;5052521;28;20222;-84
2022/04/09 07:00:44;;;;;;;6.75;5.03;;;5.80;99.90;;;;;;5105108;28;20213;-84
2022/04/09 07:03:41;;;;;;;8.50;5.03;;;5.80;99.90;;;;;;5104665;28;20270;-84
2022/04/09 07:09:43;;;;;;;7.38;5.53;;;6.00;99.90;;;;;;5088786;28;20287;-83
2022/04/09 07:18:58;;;;;;;11.10;5.32;;;5.60;99.90;;;;;;4967384;28;20234;-84
2022/04/09 07:21:53;;;;;;;8.75;5.10;;;5.60;99.90;;;;;;5019896;28;20242;-83
2022/04/09 07:24:23;;;;;;;7.22;5.28;;;6.00;99.90;;;;;;5086347;28;20246;-84
2022/04/09 07:30:17;;;;;;;10.10;4.95;;;6.30;99.90;;;;;;5113003;28;20181;-84
2022/04/09 07:33:17;;;;;;;7.10;4.55;;;6.30;99.90;;;;;;5105854;28;20291;-83
2022/04/09 07:36:22;;;;;;;9.40;5.03;;;6.40;99.90;;;;;;5109600;28;20223;-84
2022/04/09 07:42:27;;;;;;;10.32;5.22;;;6.60;99.90;;;;;;5111417;28;20217;-84
2022/04/09 07:45:15;;;;;;;7.43;4.80;;;6.80;99.90;;;;;;5111662;28;20235;-84
2022/04/09 07:48:11;;;;;;;6.28;4.60;;;6.80;99.90;;;;;;5112182;28;20286;-84
2022/04/09 07:54:04;;;;;;;6.45;4.15;;;6.90;99.90;;;;;;5094471;28;20208;-85
2022/04/09 07:56:48;;;;;;;8.10;5.22;;;6.90;99.90;;;;;;5099798;28;20256;-85
2022/04/09 08:09:10;;;;;;;8.40;5.07;;;7.10;99.90;;;;;;5095311;28;20512;-85
2022/04/09 08:25:15;;;;;;;7.35;3.78;;;7.40;99.90;;;;;;5081667;28;20209;-85
2022/04/09 08:28:16;;;;;;;10.32;3.78;;;7.40;99.90;;;;;;5018287;28;20222;-85
2022/04/09 08:30:59;;;;;;;8.70;4.45;;;7.20;99.90;;;;;;5070291;28;20269;-84
2022/04/09 08:33:55;;;;;;;6.88;3.28;;;7.10;99.90;;;;;;5069492;28;20259;-85
2022/04/09 08:40:11;;;;;;;7.90;3.85;;;7.10;99.90;;;;;;5033113;28;20565;-85
2022/04/09 08:51:53;;;;;;;7.82;3.85;;;7.30;99.90;;;;;;4806950;26;20215;-83
2022/04/09 08:55:02;;;;;;;8.13;3.25;;;7.30;99.90;;;;;;5101040;28;20216;-83
2022/04/09 08:57:59;;;;;;;5.20;2.83;;;7.30;99.90;;;;;;5086793;28;20229;-83
2022/04/09 09:01:29;;;;;;;8.30;3.03;;;7.10;99.90;;;;;;5080984;28;20231;-83
2022/04/09 09:14:46;;;;;;;5.55;3.35;;;7.30;99.90;;;;;;4918061;29;20262;-85
2022/04/09 09:28:12;;;;;;;;;;;;;;;;;;;;;
2022/04/09 09:31:33;;;;;;;7.78;3.67;;;7.80;99.90;;;;;;4905882;29;20217;-85
2022/04/09 09:34:26;;;;;;;8.10;3.72;;;7.90;99.90;;;;;;4992431;28;20272;-84
2022/04/09 09:37:40;;;;;;;9.38;3.95;;;7.90;99.90;;;;;;5087913;28;20283;-85
2022/04/09 09:44:30;;;;;;;9.27;3.78;;;8.20;99.90;;;;;;4979724;28;20535;-85
2022/04/09 09:47:19;;;;;;;5.93;2.88;;;8.30;99.90;;;;;;4986891;28;20233;-83
2022/04/09 10:13:20;;;;;;;8.32;2.70;;;9.00;99.90;;;;;;4996557;28;20210;-83
2022/04/09 10:19:50;;;;;;;5.95;2.70;;;9.10;99.90;;;;;;5189086;22;20242;-84
2022/04/09 10:43:09;;;;;;;8.55;2.72;;;9.20;99.90;;;;;;4997654;28;20232;-85
2022/04/09 10:49:47;;;;;;;6.45;2.97;;;9.60;99.90;;;;;;4877010;29;20439;-84
2022/04/09 10:52:54;;;;;;;9.48;3.08;;;9.40;99.90;;;;;;5019602;28;20310;-84
2022/04/09 10:56:21;;;;;;;;;;;;;;;;;;;;;
2022/04/09 11:03:10;;;;;;;7.43;3.53;;;8.90;99.90;;;;;;5018551;28;20222;-83
2022/04/09 11:11:42;;;;;;;;;;;;;;;;;;;;;
2022/04/09 11:25:18;;;;;;;8.27;2.17;;;9.80;97.60;;;;;;5068687;28;20373;-85
2022/04/09 11:32:03;;;;;;;8.30;2.50;;;9.50;99.10;;;;;;5038425;28;20210;-85
2022/04/09 11:45:31;;;;;;;6.80;2.60;;;9.10;97.50;;;;;;5039359;28;20594;-85
2022/04/09 11:48:00;;;;;;;5.30;2.25;;;9.20;98.40;;;;;;5084024;22;20265;-88
2022/04/09 11:50:30;;;;;;;8.95;2.42;;;9.30;97.90;;;;;;5068229;28;20209;-87
2022/04/09 11:52:58;;;;;;;5.35;2.40;;;9.60;97.40;;;;;;5066396;28;20182;-86
2022/04/09 11:55:28;;;;;;;6.32;2.35;;;9.70;97.20;;;;;;5064002;28;20234;-85
2022/04/09 11:57:56;;;;;;;6.20;2.30;;;9.80;96.30;;;;;;5064042;28;20241;-86
2022/04/09 12:00:27;;;;;;;5.47;2.83;;;10.00;94.10;;;;;;5063820;28;20230;-87
2022/04/09 12:02:54;;;;;;;4.03;1.40;;;10.10;94.20;;;;;;5063975;28;20216;-87
2022/04/09 12:05:21;;;;;;;3.60;1.90;;;10.10;93.40;;;;;;5064342;28;20449;-87
2022/04/09 12:07:49;;;;;;;6.78;2.50;;;10.10;93.60;;;;;;5066931;28;20500;-87
2022/04/09 12:10:26;;;;;;;8.57;2.40;;;10.10;94.00;;;;;;5074250;28;20345;-88
2022/04/09 12:12:58;;;;;;;5.30;2.70;;;10.10;94.00;;;;;;5068762;28;20528;-86
2022/04/09 12:15:35;;;;;;;10.27;2.30;;;10.00;94.60;;;;;;5063587;28;20209;-87
2022/04/09 12:18:04;;;;;;;6.50;2.63;;;10.00;94.00;;;;;;5061947;28;20226;-87
2022/04/09 12:20:53;;;;;;;8.82;3.00;;;9.80;94.60;;;;;;5064361;28;20210;-87
2022/04/09 12:23:30;;;;;;;9.15;2.90;;;9.80;94.90;;;;;;5054188;28;20232;-87
2022/04/09 12:25:57;;;;;;;9.43;2.30;;;9.90;95.90;;;;;;5061596;28;20212;-85
2022/04/09 12:28:28;;;;;;;6.43;2.50;;;9.80;95.80;;;;;;5064241;28;20499;-87
2022/04/09 12:30:56;;;;;;;5.38;2.53;;;9.90;96.30;;;;;;5062737;28;20213;-87
2022/04/09 12:33:28;;;;;;;6.22;2.65;;;9.90;95.80;;;;;;5066734;28;20357;-86
2022/04/09 12:36:08;;;;;;;10.70;2.83;;;10.10;94.60;;;;;;5064069;28;20205;-87
2022/04/09 12:38:36;;;;;;;7.27;2.60;;;9.90;94.60;;;;;;5062089;28;20293;-87
2022/04/09 12:41:06;;;;;;;9.00;2.63;;;10.00;94.00;;;;;;5064651;28;20481;-88
2022/04/09 12:43:35;;;;;;;7.13;2.70;;;10.00;94.10;;;;;;5066115;28;20450;-85
2022/04/09 12:46:05;;;;;;;4.65;2.47;;;10.00;93.20;;;;;;5065875;28;20217;-86
2022/04/09 12:48:40;;;;;;;7.13;2.30;;;9.90;93.50;;;;;;5066424;28;20336;-86
2022/04/09 12:51:07;;;;;;;7.68;2.53;;;10.00;93.10;;;;;;5066033;28;20448;-87
2022/04/09 12:53:34;;;;;;;7.23;2.60;;;10.20;92.60;;;;;;5066263;28;20240;-84
2022/04/09 12:56:05;;;;;;;8.27;3.20;;;10.30;91.80;;;;;;5067218;28;20452;-86
2022/04/09 12:58:32;;;;;;;8.48;2.50;;;10.20;92.60;;;;;;5066351;28;20499;-87
2022/04/09 13:00:59;;;;;;;4.97;2.23;;;10.40;92.90;;;;;;5068406;28;20209;-86
2022/04/09 13:03:27;;;;;;;9.53;2.97;;;10.40;93.00;;;;;;5067475;28;20480;-87
2022/04/09 13:05:55;;;;;;;6.30;2.40;;;10.30;93.40;;;;;;5068205;28;20433;-86
2022/04/09 13:08:22;;;;;;;6.00;2.47;;;10.40;93.30;;;;;;5065928;28;20469;-87
2022/04/09 13:10:51;;;;;;;6.53;2.27;;;10.50;92.40;;;;;;5069822;28;20458;-86
2022/04/09 13:13:18;;;;;;;5.20;2.10;;;10.40;91.10;;;;;;5076090;28;20946;-87
2022/04/09 13:15:46;;;;;;;5.00;2.00;;;10.40;91.70;;;;;;5075614;28;20466;-84
2022/04/09 13:18:13;;;;;;;5.78;1.90;;;10.10;91.20;;;;;;5077193;28;20222;-83
2022/04/09 13:20:43;;;;;;;6.25;2.10;;;9.80;92.60;;;;;;5076962;28;20201;-85
2022/04/09 13:23:10;;;;;;;7.10;2.88;;;9.90;93.30;;;;;;5066511;28;20224;-85
2022/04/09 13:25:39;;;;;;;8.40;3.42;;;10.10;92.60;;;;;;5067738;28;20212;-84
2022/04/09 13:28:06;;;;;;;7.00;3.07;;;10.30;92.80;;;;;;5073335;28;20294;-87
2022/04/09 13:30:34;;;;;;;5.20;2.03;;;10.50;93.20;;;;;;5069888;28;20810;-86
2022/04/09 13:33:01;;;;;;;9.70;1.80;;;10.70;91.70;;;;;;5065699;28;20461;-85
2022/04/09 13:35:28;;;;;;;4.80;2.20;;;10.90;90.30;;;;;;5065457;28;20435;-85
2022/04/09 13:37:56;;;;;;;5.53;2.20;;;11.00;90.00;;;;;;5074753;28;20477;-86
2022/04/09 13:40:23;;;;;;;8.67;2.03;;;11.00;88.70;;;;;;5074114;28;20487;-87
2022/04/09 13:42:50;;;;;;;6.33;2.00;;;10.90;87.80;;;;;;5071379;28;20511;-88
2022/04/09 13:45:20;;;;;;;8.60;2.50;;;10.80;87.60;;;;;;5069799;28;20444;-86
2022/04/09 13:47:47;;;;;;;6.30;2.27;;;10.60;89.80;;;;;;5068673;28;20487;-86
2022/04/09 13:50:15;;;;;;;7.10;2.13;;;10.70;90.20;;;;;;5069082;28;20510;-87
2022/04/09 13:52:42;;;;;;;10.73;2.43;;;10.80;88.20;;;;;;5069579;28;20472;-87
2022/04/09 13:55:11;;;;;;;4.47;1.83;;;10.80;88.20;;;;;;5069279;28;20483;-86
2022/04/09 13:57:38;;;;;;;4.77;1.63;;;10.90;87.60;;;;;;5068532;28;20833;-88
2022/04/09 14:00:07;;;;;;;4.97;2.00;;;10.90;87.40;;;;;;5068033;28;20826;-85
2022/04/09 14:02:34;;;;;;;5.90;2.20;;;10.90;86.50;;;;;;5069255;28;20481;-88
2022/04/09 14:05:03;;;;;;;5.83;1.97;;;11.00;85.40;;;;;;5067841;28;20464;-86
2022/04/09 14:07:30;;;;;;;5.10;2.50;;;10.90;85.60;;;;;;5069540;28;20503;-85
2022/04/09 14:09:57;;;;;;;9.13;2.60;;;11.00;86.20;;;;;;5067246;28;20456;-86
2022/04/09 14:12:26;;;;;;;7.17;2.33;;;11.00;86.00;;;;;;5067942;28;20415;-86
2022/04/09 14:14:53;;;;;;;6.27;2.73;;;11.00;86.40;;;;;;5068049;28;20441;-86
2022/04/09 14:17:22;;;;;;;8.90;2.80;;;11.00;87.60;;;;;;5069746;28;20538;-88
2022/04/09 14:19:50;;;;;;;5.47;2.10;;;11.00;88.50;;;;;;5068328;28;20458;-85
2022/04/09 14:22:17;;;;;;;7.20;3.07;;;11.00;89.30;;;;;;5067613;28;20849;-87
2022/04/09 14:24:49;;;;;;;7.10;2.60;;;11.10;87.80;;;;;;5069948;28;20456;-86
2022/04/09 14:27:16;;;;;;;6.80;2.40;;;10.90;87.80;;;;;;5068046;28;20464;-88
2022/04/09 14:29:44;;;;;;;6.33;2.00;;;11.00;87.80;;;;;;5068214;28;20449;-85
2022/04/09 14:32:11;;;;;;;9.20;2.70;;;11.00;87.00;;;;;;5068170;28;20461;-86
2022/04/09 14:34:38;;;;;;;7.83;2.03;;;11.00;87.30;;;;;;5066424;28;20483;-89
2022/04/09 14:37:05;;;;;;;7.33;2.30;;;10.90;87.70;;;;;;5067085;28;20470;-87
2022/04/09 14:39:36;;;;;;;5.13;2.37;;;10.70;88.10;;;;;;5067004;28;20456;-87
2022/04/09 14:42:04;;;;;;;9.30;2.10;;;10.80;89.10;;;;;;5065643;28;20504;-87
2022/04/09 14:44:31;;;;;;;7.50;1.80;;;10.80;88.00;;;;;;5066548;28;20484;-88
2022/04/09 14:47:07;;;;;;;6.18;2.70;;;10.80;87.50;;;;;;5073086;28;20484;-87
2022/04/09 14:49:35;;;;;;;5.83;2.00;;;10.80;86.30;;;;;;5072061;28;20206;-87
2022/04/09 14:52:05;;;;;;;8.23;2.40;;;10.90;85.30;;;;;;5068476;28;20543;-86
2022/04/09 14:54:33;;;;;;;5.07;2.20;;;11.00;85.30;;;;;;5076299;28;20440;-85
2022/04/09 14:57:00;;;;;;;4.93;1.70;;;11.20;84.50;;;;;;5069814;28;20532;-86
2022/04/09 14:59:27;;;;;;;7.60;2.03;;;11.00;85.00;;;;;;5078607;28;20436;-86
2022/04/09 15:01:57;;;;;;;7.23;2.10;;;10.90;85.40;;;;;;5078121;28;20445;-87
2022/04/09 15:04:26;;;;;;;5.10;2.00;;;10.90;84.90;;;;;;5066812;28;20559;-85
2022/04/09 15:06:53;;;;;;;4.27;1.73;;;11.00;83.80;;;;;;5066655;28;20473;-87
2022/04/09 15:09:23;;;;;;;5.30;1.90;;;11.20;83.90;;;;;;5067825;28;20598;-86
2022/04/09 15:11:50;;;;;;;5.33;2.23;;;11.20;83.80;;;;;;5072599;28;20433;-86
2022/04/09 15:14:17;;;;;;;5.70;2.77;;;11.10;84.20;;;;;;5074963;28;20455;-86
2022/04/09 15:16:45;;;;;;;5.53;2.10;;;10.90;84.20;;;;;;5066359;28;20473;-86
2022/04/09 15:19:12;;;;;;;8.53;2.93;;;11.00;83.80;;;;;;5066353;28;20479;-86
2022/04/09 15:21:41;;;;;;;6.20;2.37;;;11.00;83.10;;;;;;5067553;28;20993;-87
2022/04/09 15:24:09;;;;;;;7.30;2.33;;;11.10;82.90;;;;;;5065048;28;20535;-88
2022/04/09 15:26:36;;;;;;;4.70;2.20;;;11.10;82.60;;;;;;5064897;28;20449;-87
2022/04/09 15:29:03;;;;;;;5.17;1.70;;;11.40;83.10;;;;;;5073299;28;20449;-87
2022/04/09 15:31:30;;;;;;;5.20;2.40;;;11.50;82.80;;;;;;5072815;28;20449;-87
2022/04/09 15:33:57;;;;;;;6.00;2.30;;;11.20;82.80;;;;;;5066687;28;20540;-88
2022/04/09 15:36:24;;;;;;;4.90;2.20;;;11.10;83.70;;;;;;5066929;28;20434;-86
2022/04/09 15:38:54;;;;;;;5.97;1.90;;;11.00;84.40;;;;;;5068121;28;20518;-86
2022/04/09 15:41:22;;;;;;;5.73;2.40;;;10.80;84.00;;;;;;5065668;28;20525;-86
2022/04/09 15:43:49;;;;;;;6.13;2.47;;;10.60;86.20;;;;;;5064860;28;20485;-88
2022/04/09 15:46:16;;;;;;;6.67;3.30;;;10.50;85.90;;;;;;5063755;28;20476;-87
2022/04/09 15:48:43;;;;;;;6.60;2.20;;;10.50;87.00;;;;;;5069681;28;20797;-87
2022/04/09 15:51:10;;;;;;;6.50;2.13;;;10.50;85.90;;;;;;5071887;28;20449;-87
2022/04/09 15:53:37;;;;;;;6.53;2.47;;;10.80;86.60;;;;;;5070032;28;20654;-85
2022/04/09 15:56:06;;;;;;;5.17;2.30;;;11.50;84.90;;;;;;5067355;28;20541;-86
2022/04/09 15:58:32;;;;;;;6.27;2.47;;;12.10;83.20;;;;;;5068018;28;20443;-87
2022/04/09 16:00:59;;;;;;;5.40;2.27;;;12.80;80.60;;;;;;5070093;28;20429;-88
2022/04/09 16:03:30;;;;;;;4.80;2.40;;;13.00;78.70;;;;;;5068230;28;20484;-87
2022/04/09 16:05:57;;;;;;;7.50;2.07;;;12.70;77.60;;;;;;5072596;28;20449;-87
2022/04/09 16:08:24;;;;;;;6.03;2.00;;;12.40;78.10;;;;;;5071853;28;20445;-87
2022/04/09 16:10:50;;;;;;;3.63;1.90;;;11.80;78.10;;;;;;5065758;28;20469;-87
2022/04/09 16:13:19;;;;;;;5.63;2.40;;;11.30;80.70;;;;;;5064575;28;20468;-87
2022/04/09 16:15:46;;;;;;;5.33;1.73;;;11.20;81.40;;;;;;5063025;28;20857;-87
2022/04/09 16:18:13;;;;;;;7.10;2.50;;;11.30;81.10;;;;;;5062919;28;20469;-87
2022/04/09 16:20:41;;;;;;;5.97;2.20;;;11.20;81.60;;;;;;5062977;28;20545;-87
2022/04/09 16:23:08;;;;;;;4.60;1.63;;;11.20;82.30;;;;;;5062984;28;20473;-86
2022/04/09 16:25:35;;;;;;;7.27;1.87;;;11.20;82.60;;;;;;5063051;28;20579;-87
2022/04/09 16:28:04;;;;;;;5.30;1.60;;;11.10;82.50;;;;;;5061998;28;20469;-86
2022/04/09 16:30:36;;;;;;;4.07;1.67;;;11.00;82.70;;;;;;5062951;28;20444;-88
2022/04/09 16:33:03;;;;;;;4.20;1.50;;;11.10;82.70;;;;;;5062318;28;20444;-88
2022/04/09 16:35:33;;;;;;;5.33;2.30;;;11.20;82.00;;;;;;5062624;28;20792;-89
2022/04/09 16:38:02;;;;;;;6.93;1.60;;;11.20;80.70;;;;;;5070734;28;20460;-85
2022/04/09 16:40:31;;;;;;;3.97;1.53;;;11.40;81.00;;;;;;5076084;28;20445;-87
2022/04/09 16:43:03;;;;;;;7.57;2.53;;;11.20;81.50;;;;;;5063253;28;20447;-88
2022/04/09 16:45:30;;;;;;;7.00;2.57;;;11.10;81.20;;;;;;5063150;28;20495;-87
2022/04/09 16:47:58;;;;;;;5.20;1.60;;;11.00;80.20;;;;;;5062367;28;20548;-88
2022/04/09 16:50:25;;;;;;;7.20;1.67;;;11.10;80.90;;;;;;5063141;28;20453;-85
2022/04/09 16:52:52;;;;;;;5.18;1.63;;;10.90;79.20;;;;;;5068344;28;20440;-88
2022/04/09 16:55:20;;;;;;;5.83;2.30;;;10.70;79.90;;;;;;5066093;28;20565;-86
2022/04/09 16:57:47;;;;;;;8.23;2.13;;;10.60;80.70;;;;;;5069247;28;20475;-86
2022/04/09 17:00:14;;;;;;;4.17;1.60;;;10.70;81.10;;;;;;5068612;28;20237;-87
2022/04/09 17:02:44;;;;;;;6.97;2.05;;;10.70;81.60;;;;;;5064768;28;20902;-88
2022/04/09 17:05:12;;;;;;;7.67;1.80;;;10.70;82.00;;;;;;5062016;28;20317;-87